Appleton, Idaho
Current Conditions -  °F | °C
As of 1:53 AM on Saturday 25 Oct 2014 (Local Time) from KJER Reporting Station
Clear Clear  
Wind Chill:   Ceiling: Unl
Heat Index:   Visibility: 10mi
Dew Point: -2°   Wind: 16mph
Humidity: 48%   Direction: 40°NE
Pressure: 29.98"   Gusts: NA
Location:  42.7238°N, 114.338°W
Report Text: KJER 250753Z AUTO 04014KT 10SM CLR 09/M02 A2998 RMK AO2 SLP128 T00891017
Loading
Personal Weather Stations






























Interactive Weather Map
Tropical Storm Tracking
New forecast layout! Learn more

10-Day Weather Forecast

Advertisements
Track Severe Weather on mobile